Time;durP1;ratioP1;P1;durP2;ratioP2;P2;SDS_P1;SDS_P2;PMS_P1;PMS_P2;Temp;Humidity;BMP_temperature;BMP_pressure;BME280_temperature;BME280_humidity;BME280_pressure;Samples;Min_cycle;Max_cycle;Signal;HPM_P1;HPM_P2
2023/05/05 00:01:59;;;;;;;;;;;20.90;43.30;;;;;;4986034;28;20040;-54
2023/05/05 00:04:24;;;;;;;;;;;20.80;43.30;;;;;;4984841;28;20009;-55
2023/05/05 00:06:49;;;;;;;;;;;20.80;43.30;;;;;;4985154;28;19922;-55
2023/05/05 00:09:15;;;;;;;;;;;20.80;43.40;;;;;;4987747;28;19918;-55
2023/05/05 00:11:40;;;;;;;;;;;20.80;43.30;;;;;;5017858;28;19924;-54
2023/05/05 00:14:06;;;;;;;;;;;20.80;43.30;;;;;;4987834;28;19922;-55
2023/05/05 00:16:31;;;;;;;;;;;20.80;43.20;;;;;;4987161;28;19976;-55
2023/05/05 00:18:57;;;;;;;;;;;20.80;43.30;;;;;;5014993;28;19914;-55
2023/05/05 00:21:23;;;;;;;;;;;20.80;43.40;;;;;;4983559;28;19929;-55
2023/05/05 00:23:48;;;;;;;;;;;20.80;43.20;;;;;;4985404;28;19917;-54
2023/05/05 00:26:14;;;;;;;;;;;20.70;43.20;;;;;;4988739;28;19927;-54
2023/05/05 00:28:39;;;;;;;;;;;20.70;43.20;;;;;;4975446;28;19921;-54
2023/05/05 00:31:05;;;;;;;;;;;20.70;43.20;;;;;;4983044;28;19925;-55
2023/05/05 00:33:30;;;;;;;;;;;20.70;43.30;;;;;;4982882;28;19914;-55
2023/05/05 00:35:56;;;;;;;;;;;20.70;43.50;;;;;;4987279;28;20000;-55
2023/05/05 00:38:22;;;;;;;;;;;20.70;43.20;;;;;;4983045;28;19914;-55
2023/05/05 00:40:47;;;;;;;;;;;20.70;43.30;;;;;;4987519;28;19914;-55
2023/05/05 00:43:13;;;;;;;;;;;20.70;43.30;;;;;;4989323;28;19921;-54
2023/05/05 00:45:41;;;;;;;;;;;20.70;43.20;;;;;;4988919;28;19917;-55
2023/05/05 00:48:07;;;;;;;;;;;20.60;43.20;;;;;;5005237;28;19914;-54
2023/05/05 00:50:32;;;;;;;;;;;20.70;43.30;;;;;;5006459;28;19921;-55
2023/05/05 00:53:02;;;;;;;;;;;20.60;43.30;;;;;;5012160;28;20302;-55
2023/05/05 00:55:28;;;;;;;;;;;20.70;43.30;;;;;;5016663;28;20410;-55
2023/05/05 00:57:53;;;;;;;;;;;20.60;43.20;;;;;;4989061;28;19914;-54
2023/05/05 01:00:19;;;;;;;;;;;20.60;43.20;;;;;;5021581;28;20277;-55
2023/05/05 01:02:44;;;;;;;;;;;20.60;43.30;;;;;;4987434;28;20021;-55
2023/05/05 01:05:10;;;;;;;;;;;20.60;43.40;;;;;;4988729;28;19928;-55
2023/05/05 01:07:42;;;;;;;;;;;20.60;43.20;;;;;;5019841;28;20741;-55
2023/05/05 01:10:07;;;;;;;;;;;20.50;43.20;;;;;;4988365;28;20394;-54
2023/05/05 01:12:40;;;;;;;;;;;20.60;43.30;;;;;;4988401;28;19930;-55
2023/05/05 01:15:09;;;;;;;;;;;20.50;43.20;;;;;;4990507;28;20008;-54
2023/05/05 01:17:37;;;;;;;;;;;20.60;43.30;;;;;;4987989;28;19913;-55
2023/05/05 01:20:11;;;;;;;;;;;20.60;43.20;;;;;;4989921;28;20410;-55
2023/05/05 01:22:38;;;;;;;;;;;20.60;43.20;;;;;;5021948;28;19921;-54
2023/05/05 01:25:26;;;;;;;;;;;20.60;43.10;;;;;;4988094;28;19917;-55
2023/05/05 01:28:12;;;;;;;;;;;20.70;42.90;;;;;;4994852;28;19914;-55
2023/05/05 01:30:38;;;;;;;;;;;20.70;42.70;;;;;;5002109;28;19914;-55
2023/05/05 01:33:05;;;;;;;;;;;20.80;43.10;;;;;;4989596;28;19929;-54
2023/05/05 01:35:39;;;;;;;;;;;20.80;42.50;;;;;;5015358;28;19976;-54
2023/05/05 01:38:05;;;;;;;;;;;20.80;42.80;;;;;;5005749;28;19951;-54
2023/05/05 01:40:30;;;;;;;;;;;20.90;42.50;;;;;;5000116;28;20409;-55
2023/05/05 01:42:57;;;;;;;;;;;20.90;42.40;;;;;;4986807;28;19913;-55
2023/05/05 01:45:26;;;;;;;;;;;21.00;42.40;;;;;;4985648;28;19925;-53
2023/05/05 01:47:51;;;;;;;;;;;21.00;42.20;;;;;;5023290;28;19936;-55
2023/05/05 01:50:16;;;;;;;;;;;21.00;42.20;;;;;;4985457;28;19913;-55
2023/05/05 01:52:42;;;;;;;;;;;21.10;42.20;;;;;;4992509;28;19921;-54
2023/05/05 01:55:08;;;;;;;;;;;21.10;42.10;;;;;;5011657;28;20370;-55
2023/05/05 01:57:33;;;;;;;;;;;21.10;41.90;;;;;;5012033;28;19925;-55
2023/05/05 02:00:00;;;;;;;;;;;21.10;41.90;;;;;;4981476;28;19917;-56
2023/05/05 02:02:26;;;;;;;;;;;21.20;41.90;;;;;;4980237;28;20402;-55
2023/05/05 02:04:52;;;;;;;;;;;21.20;42.00;;;;;;4980846;28;19958;-54
2023/05/05 02:07:17;;;;;;;;;;;21.20;41.90;;;;;;4979152;28;19913;-54
2023/05/05 02:09:43;;;;;;;;;;;21.20;41.80;;;;;;4981102;28;19918;-54
2023/05/05 02:12:08;;;;;;;;;;;21.20;41.90;;;;;;4979263;28;19976;-56
2023/05/05 02:14:33;;;;;;;;;;;21.20;41.90;;;;;;4979649;28;20398;-55
2023/05/05 02:17:00;;;;;;;;;;;21.30;41.80;;;;;;4979362;28;19924;-55
2023/05/05 02:19:27;;;;;;;;;;;21.30;41.90;;;;;;4980862;28;19914;-54
2023/05/05 02:21:53;;;;;;;;;;;21.20;41.70;;;;;;4980150;28;19921;-54
2023/05/05 02:24:18;;;;;;;;;;;21.20;41.80;;;;;;4981218;28;19922;-54
2023/05/05 02:26:44;;;;;;;;;;;21.20;41.70;;;;;;5007313;28;21861;-54
2023/05/05 02:29:19;;;;;;;;;;;21.20;41.60;;;;;;4978938;28;20008;-54
2023/05/05 02:31:49;;;;;;;;;;;21.20;41.80;;;;;;5011299;28;20056;-54
2023/05/05 02:34:20;;;;;;;;;;;21.20;41.70;;;;;;4979815;28;19929;-54
2023/05/05 02:36:45;;;;;;;;;;;21.20;41.80;;;;;;5009683;28;19972;-55
2023/05/05 02:39:12;;;;;;;;;;;21.20;41.70;;;;;;4981694;28;19921;-54
2023/05/05 02:41:38;;;;;;;;;;;21.20;41.60;;;;;;4991842;28;19917;-55
2023/05/05 02:44:03;;;;;;;;;;;21.20;41.70;;;;;;5007431;28;19921;-55
2023/05/05 02:46:29;;;;;;;;;;;21.20;41.80;;;;;;4979777;28;19933;-55
2023/05/05 02:48:55;;;;;;;;;;;21.20;41.80;;;;;;4978716;28;19917;-54
2023/05/05 02:51:20;;;;;;;;;;;21.10;41.80;;;;;;4979109;28;20082;-55
2023/05/05 02:53:45;;;;;;;;;;;21.10;41.70;;;;;;4974138;28;19917;-54
2023/05/05 02:56:30;;;;;;;;;;;21.20;41.80;;;;;;5008971;28;19926;-54
2023/05/05 02:58:59;;;;;;;;;;;21.20;41.70;;;;;;4979180;28;19914;-55
2023/05/05 03:01:33;;;;;;;;;;;21.10;41.60;;;;;;4980777;28;19922;-55
2023/05/05 03:04:03;;;;;;;;;;;21.10;41.60;;;;;;4975770;28;20524;-54
2023/05/05 03:06:30;;;;;;;;;;;21.10;41.70;;;;;;5011209;28;19967;-54
2023/05/05 03:08:59;;;;;;;;;;;21.10;41.70;;;;;;5009452;28;19985;-55
2023/05/05 03:11:45;;;;;;;;;;;21.10;41.70;;;;;;4978814;28;19918;-54
2023/05/05 03:14:11;;;;;;;;;;;21.10;41.80;;;;;;4978068;28;20031;-55
2023/05/05 03:16:37;;;;;;;;;;;21.10;41.80;;;;;;4979256;28;19918;-55
2023/05/05 03:19:02;;;;;;;;;;;21.10;41.60;;;;;;4979778;28;19921;-54
2023/05/05 03:21:28;;;;;;;;;;;21.10;41.70;;;;;;5011516;28;19943;-57
2023/05/05 03:23:54;;;;;;;;;;;21.10;41.60;;;;;;4982003;28;20309;-55
2023/05/05 03:26:19;;;;;;;;;;;21.00;42.30;;;;;;4981756;28;19925;-55
2023/05/05 03:28:45;;;;;;;;;;;21.00;42.00;;;;;;4988160;28;19925;-55
2023/05/05 03:31:13;;;;;;;;;;;21.00;41.80;;;;;;4980264;28;20363;-55
2023/05/05 03:33:39;;;;;;;;;;;21.00;41.60;;;;;;4979394;28;19921;-54
2023/05/05 03:36:04;;;;;;;;;;;21.10;41.60;;;;;;4980357;28;20060;-54
2023/05/05 03:38:30;;;;;;;;;;;21.00;41.60;;;;;;4983616;28;20301;-55
2023/05/05 03:40:55;;;;;;;;;;;21.00;41.60;;;;;;4982034;28;19914;-55
2023/05/05 03:43:21;;;;;;;;;;;21.00;41.60;;;;;;4984143;28;19972;-55
2023/05/05 03:45:46;;;;;;;;;;;21.00;41.60;;;;;;4984807;28;20012;-54
2023/05/05 03:48:12;;;;;;;;;;;21.00;41.60;;;;;;4985180;28;19921;-55
2023/05/05 03:50:37;;;;;;;;;;;21.10;41.60;;;;;;4984883;28;20897;-54
2023/05/05 03:53:03;;;;;;;;;;;21.10;41.40;;;;;;4980530;28;20293;-54
2023/05/05 03:55:28;;;;;;;;;;;21.10;41.40;;;;;;4978087;28;20331;-54
2023/05/05 03:57:54;;;;;;;;;;;21.10;41.40;;;;;;4977894;28;19961;-54
2023/05/05 04:00:19;;;;;;;;;;;21.10;41.40;;;;;;4977199;28;19918;-54
2023/05/05 04:02:45;;;;;;;;;;;21.10;41.50;;;;;;5011325;28;19987;-55
2023/05/05 04:05:10;;;;;;;;;;;21.20;41.50;;;;;;4979403;28;19914;-56
2023/05/05 04:07:35;;;;;;;;;;;21.10;41.40;;;;;;4977479;28;19918;-54
2023/05/05 04:10:01;;;;;;;;;;;21.10;41.70;;;;;;4977478;28;19928;-54
2023/05/05 04:12:26;;;;;;;;;;;21.10;41.50;;;;;;4976507;28;21056;-55
2023/05/05 04:14:52;;;;;;;;;;;21.20;41.60;;;;;;4977361;28;20331;-55
2023/05/05 04:17:17;;;;;;;;;;;21.10;41.50;;;;;;4977493;28;20346;-54
2023/05/05 04:19:43;;;;;;;;;;;21.10;41.40;;;;;;5008175;28;20020;-55
2023/05/05 04:22:08;;;;;;;;;;;21.10;41.50;;;;;;4977949;28;19957;-54
2023/05/05 04:24:33;;;;;;;;;;;21.10;41.50;;;;;;4977840;28;19921;-54
2023/05/05 04:26:59;;;;;;;;;;;21.10;41.50;;;;;;4978487;28;19926;-55
2023/05/05 04:29:25;;;;;;;;;;;21.00;41.60;;;;;;4978183;28;19917;-55
2023/05/05 04:31:50;;;;;;;;;;;21.10;41.60;;;;;;4987542;28;20278;-54
2023/05/05 04:34:16;;;;;;;;;;;21.00;41.50;;;;;;4984716;28;20338;-54
2023/05/05 04:36:41;;;;;;;;;;;21.00;41.60;;;;;;4982752;28;20008;-54
2023/05/05 04:39:07;;;;;;;;;;;21.00;41.70;;;;;;4985034;28;19924;-55
2023/05/05 04:41:33;;;;;;;;;;;21.00;41.70;;;;;;4981652;28;19921;-55
2023/05/05 04:43:58;;;;;;;;;;;21.00;41.70;;;;;;4981893;28;20004;-55
2023/05/05 04:46:24;;;;;;;;;;;21.00;41.70;;;;;;4985481;28;19988;-54
2023/05/05 04:48:49;;;;;;;;;;;20.90;41.60;;;;;;4984483;28;19972;-54
2023/05/05 04:51:15;;;;;;;;;;;20.90;41.60;;;;;;4997742;28;20321;-54
2023/05/05 04:53:40;;;;;;;;;;;20.90;41.70;;;;;;4984300;28;19914;-55
2023/05/05 04:56:05;;;;;;;;;;;20.90;41.60;;;;;;4981954;28;20397;-54
2023/05/05 04:58:31;;;;;;;;;;;20.90;41.70;;;;;;4980856;28;19918;-54
2023/05/05 05:00:56;;;;;;;;;;;20.90;41.90;;;;;;4981277;28;20011;-55
2023/05/05 05:03:22;;;;;;;;;;;20.80;41.80;;;;;;4983889;28;20379;-55
2023/05/05 05:05:47;;;;;;;;;;;20.90;41.80;;;;;;4982794;28;20368;-55
2023/05/05 05:08:16;;;;;;;;;;;20.90;41.70;;;;;;4985332;28;19914;-54
2023/05/05 05:10:42;;;;;;;;;;;20.90;41.80;;;;;;4986941;28;19964;-55
2023/05/05 05:13:08;;;;;;;;;;;20.90;41.80;;;;;;4984948;28;19922;-54
2023/05/05 05:15:33;;;;;;;;;;;20.80;41.80;;;;;;4982614;28;19921;-54
2023/05/05 05:17:59;;;;;;;;;;;20.80;41.90;;;;;;4982589;28;19946;-54
2023/05/05 05:20:24;;;;;;;;;;;20.80;41.80;;;;;;4984865;28;19922;-55
2023/05/05 05:22:50;;;;;;;;;;;20.90;41.90;;;;;;4985544;28;19914;-55
2023/05/05 05:25:15;;;;;;;;;;;20.80;41.80;;;;;;4985856;28;19992;-54
2023/05/05 05:27:41;;;;;;;;;;;20.80;41.90;;;;;;5016403;28;19925;-54
2023/05/05 05:30:07;;;;;;;;;;;20.80;42.00;;;;;;4989478;28;20011;-54
2023/05/05 05:32:32;;;;;;;;;;;20.80;42.00;;;;;;5020514;28;19936;-55
2023/05/05 05:34:58;;;;;;;;;;;20.80;42.00;;;;;;4986623;28;20398;-55
2023/05/05 05:37:27;;;;;;;;;;;20.80;41.90;;;;;;4986241;28;20509;-55
2023/05/05 05:39:52;;;;;;;;;;;20.80;42.10;;;;;;4987744;28;19928;-54
2023/05/05 05:42:17;;;;;;;;;;;20.80;42.10;;;;;;4988336;28;19914;-54
2023/05/05 05:44:43;;;;;;;;;;;20.80;42.10;;;;;;5019163;28;19933;-54
2023/05/05 05:47:08;;;;;;;;;;;20.80;42.10;;;;;;4986288;28;19928;-55
2023/05/05 05:49:34;;;;;;;;;;;20.80;42.00;;;;;;4987162;28;19997;-54
2023/05/05 05:51:59;;;;;;;;;;;20.90;42.10;;;;;;4983127;28;19917;-54
2023/05/05 05:54:25;;;;;;;;;;;20.80;42.00;;;;;;4987722;28;19918;-55
2023/05/05 05:56:50;;;;;;;;;;;20.80;42.10;;;;;;4989557;28;19917;-55
2023/05/05 05:59:16;;;;;;;;;;;20.80;42.20;;;;;;4988053;28;20348;-54
2023/05/05 06:01:41;;;;;;;;;;;20.80;42.20;;;;;;4988587;28;19921;-54
2023/05/05 06:04:07;;;;;;;;;;;20.80;42.10;;;;;;4990199;28;19936;-55
2023/05/05 06:06:32;;;;;;;;;;;20.90;42.10;;;;;;4985452;28;19917;-54
2023/05/05 06:08:58;;;;;;;;;;;20.90;42.10;;;;;;4985207;28;19953;-54
2023/05/05 06:11:23;;;;;;;;;;;20.90;42.00;;;;;;4989264;28;19929;-54
2023/05/05 06:13:49;;;;;;;;;;;20.90;42.00;;;;;;4984332;28;19937;-54
2023/05/05 06:16:14;;;;;;;;;;;20.90;42.10;;;;;;4982103;28;19985;-54
2023/05/05 06:18:40;;;;;;;;;;;20.90;42.10;;;;;;4977996;28;22559;-55
2023/05/05 06:21:05;;;;;;;;;;;21.00;42.20;;;;;;4982963;28;20378;-53
2023/05/05 06:23:31;;;;;;;;;;;21.00;42.20;;;;;;4985096;28;19922;-55
2023/05/05 06:25:56;;;;;;;;;;;20.90;42.20;;;;;;4986680;28;19918;-55
2023/05/05 06:28:22;;;;;;;;;;;20.90;42.90;;;;;;4985922;28;20375;-54
2023/05/05 06:30:47;;;;;;;;;;;20.90;42.50;;;;;;4984636;28;19921;-54
2023/05/05 06:33:13;;;;;;;;;;;20.90;42.40;;;;;;4991729;28;19961;-54
2023/05/05 06:35:38;;;;;;;;;;;20.90;42.40;;;;;;4987361;28;19914;-55
2023/05/05 06:38:04;;;;;;;;;;;20.80;42.40;;;;;;4988900;28;19925;-55
2023/05/05 06:40:30;;;;;;;;;;;20.80;42.20;;;;;;4988675;28;19918;-54
2023/05/05 06:42:56;;;;;;;;;;;20.80;42.50;;;;;;4979017;28;20373;-54
2023/05/05 06:45:21;;;;;;;;;;;20.90;42.40;;;;;;4985147;28;19917;-55
2023/05/05 06:47:47;;;;;;;;;;;20.80;42.50;;;;;;4987907;28;21306;-55
2023/05/05 06:50:13;;;;;;;;;;;20.80;42.50;;;;;;4983390;28;19914;-56
2023/05/05 06:52:38;;;;;;;;;;;20.80;42.60;;;;;;4986048;28;19918;-55
2023/05/05 06:55:04;;;;;;;;;;;20.70;42.90;;;;;;4989822;28;19929;-55
2023/05/05 06:57:30;;;;;;;;;;;20.70;42.70;;;;;;4987504;28;19922;-55
2023/05/05 06:59:55;;;;;;;;;;;20.80;42.70;;;;;;4987214;28;20454;-54
2023/05/05 07:02:21;;;;;;;;;;;20.80;42.80;;;;;;4993307;28;19921;-54
2023/05/05 07:04:46;;;;;;;;;;;20.90;43.00;;;;;;4991056;28;19993;-54
2023/05/05 07:07:12;;;;;;;;;;;20.80;43.10;;;;;;4991228;28;19925;-54
2023/05/05 07:09:37;;;;;;;;;;;20.80;42.90;;;;;;4996982;28;20059;-54
2023/05/05 07:12:03;;;;;;;;;;;20.90;43.00;;;;;;5000802;28;19921;-53
2023/05/05 07:14:28;;;;;;;;;;;20.90;42.90;;;;;;4996337;28;19922;-54
2023/05/05 07:16:54;;;;;;;;;;;20.90;43.20;;;;;;4989981;28;19924;-55
2023/05/05 07:19:19;;;;;;;;;;;20.90;43.20;;;;;;4997240;28;20075;-53
2023/05/05 07:21:46;;;;;;;;;;;20.90;43.10;;;;;;5000869;28;20011;-54
2023/05/05 07:24:11;;;;;;;;;;;20.90;43.40;;;;;;5032080;28;20389;-54
2023/05/05 07:26:36;;;;;;;;;;;20.90;43.20;;;;;;4991196;28;19917;-54
2023/05/05 07:29:04;;;;;;;;;;;20.90;43.10;;;;;;4996536;28;19918;-54
2023/05/05 07:31:29;;;;;;;;;;;20.90;43.20;;;;;;4998087;28;19947;-54
2023/05/05 07:33:55;;;;;;;;;;;20.90;43.20;;;;;;4994449;28;19918;-54
2023/05/05 07:36:21;;;;;;;;;;;20.90;43.20;;;;;;4996891;28;19920;-55
2023/05/05 07:38:46;;;;;;;;;;;21.00;43.20;;;;;;5004145;28;20004;-56
2023/05/05 07:41:12;;;;;;;;;;;21.00;43.30;;;;;;5006272;28;19914;-55
2023/05/05 07:43:39;;;;;;;;;;;21.00;43.40;;;;;;4989086;28;19969;-56
2023/05/05 07:46:05;;;;;;;;;;;21.00;43.20;;;;;;4994004;28;19933;-55
2023/05/05 07:48:30;;;;;;;;;;;21.00;43.50;;;;;;5000055;28;19913;-55
2023/05/05 07:50:56;;;;;;;;;;;21.00;43.50;;;;;;5001956;28;20366;-56
2023/05/05 07:53:21;;;;;;;;;;;21.00;43.40;;;;;;4996278;28;19917;-55
2023/05/05 07:55:47;;;;;;;;;;;21.00;43.30;;;;;;5005198;28;19959;-55
2023/05/05 07:58:12;;;;;;;;;;;21.00;43.40;;;;;;4997673;28;20020;-55
2023/05/05 08:00:38;;;;;;;;;;;21.00;43.60;;;;;;4999953;28;19914;-54
2023/05/05 08:03:03;;;;;;;;;;;21.00;43.60;;;;;;4997213;28;19972;-55
2023/05/05 08:05:29;;;;;;;;;;;21.00;43.60;;;;;;4987593;28;19976;-54
2023/05/05 08:07:54;;;;;;;;;;;21.00;43.60;;;;;;4991150;28;20144;-55
2023/05/05 08:10:21;;;;;;;;;;;21.00;43.50;;;;;;5005505;28;19920;-55
2023/05/05 08:12:46;;;;;;;;;;;21.00;44.20;;;;;;4995064;28;19965;-54
2023/05/05 08:15:12;;;;;;;;;;;21.00;43.70;;;;;;4995689;28;19961;-55
2023/05/05 08:17:47;;;;;;;;;;;21.00;43.70;;;;;;4987787;28;20367;-52
2023/05/05 08:20:12;;;;;;;;;;;21.00;43.70;;;;;;4977662;28;20367;-56
2023/05/05 08:22:40;;;;;;;;;;;21.00;43.60;;;;;;5004193;28;21476;-55
2023/05/05 08:25:06;;;;;;;;;;;21.00;43.60;;;;;;5016693;28;19941;-55
2023/05/05 08:27:34;;;;;;;;;;;21.10;43.80;;;;;;5002362;28;20406;-55
2023/05/05 08:30:00;;;;;;;;;;;21.10;43.60;;;;;;4995273;28;19921;-55
2023/05/05 08:32:25;;;;;;;;;;;21.10;43.70;;;;;;5004140;28;19921;-55
2023/05/05 08:34:50;;;;;;;;;;;21.10;43.70;;;;;;4995770;28;19960;-55
2023/05/05 08:37:17;;;;;;;;;;;21.10;43.80;;;;;;4991731;28;20506;-54
2023/05/05 08:39:43;;;;;;;;;;;21.10;43.60;;;;;;5001564;28;20366;-54
2023/05/05 08:42:08;;;;;;;;;;;21.20;43.80;;;;;;4990767;28;19953;-54
2023/05/05 08:44:34;;;;;;;;;;;21.10;43.80;;;;;;5003683;28;19917;-55
2023/05/05 08:46:59;;;;;;;;;;;21.10;43.80;;;;;;5004646;28;19948;-54
2023/05/05 08:49:25;;;;;;;;;;;21.10;43.70;;;;;;4990534;28;19917;-55
2023/05/05 08:51:50;;;;;;;;;;;21.20;43.60;;;;;;5025677;28;19918;-54
2023/05/05 08:54:17;;;;;;;;;;;21.20;43.80;;;;;;4984874;28;20000;-55
2023/05/05 08:56:42;;;;;;;;;;;21.30;43.60;;;;;;4982639;28;19976;-56
2023/05/05 08:59:11;;;;;;;;;;;21.30;43.60;;;;;;4995883;28;20330;-54
2023/05/05 09:01:36;;;;;;;;;;;21.30;43.60;;;;;;5014911;28;19976;-54
2023/05/05 09:04:02;;;;;;;;;;;21.30;43.70;;;;;;4989091;28;20318;-55
2023/05/05 09:06:27;;;;;;;;;;;21.30;43.80;;;;;;4992222;28;19925;-54
2023/05/05 09:08:53;;;;;;;;;;;21.30;43.80;;;;;;5020154;28;19917;-54
2023/05/05 09:11:19;;;;;;;;;;;21.30;43.50;;;;;;5005189;28;19922;-54
2023/05/05 09:13:45;;;;;;;;;;;21.40;43.60;;;;;;4992815;28;19926;-55
2023/05/05 09:16:11;;;;;;;;;;;21.40;43.70;;;;;;4993706;28;19937;-56
2023/05/05 09:18:37;;;;;;;;;;;21.40;43.60;;;;;;4988263;28;19914;-55
2023/05/05 09:21:17;;;;;;;;;;;21.40;43.70;;;;;;4998771;28;20032;-55
2023/05/05 09:24:02;;;;;;;;;;;21.40;43.80;;;;;;4995974;28;20378;-55
2023/05/05 09:26:27;;;;;;;;;;;21.50;43.70;;;;;;4986959;28;19918;-54
2023/05/05 09:28:52;;;;;;;;;;;21.40;44.10;;;;;;4989540;28;20012;-55
2023/05/05 09:31:18;;;;;;;;;;;21.50;43.80;;;;;;4999980;28;19914;-54
2023/05/05 09:33:44;;;;;;;;;;;21.50;43.70;;;;;;4987850;28;20331;-55
2023/05/05 09:36:10;;;;;;;;;;;21.50;43.80;;;;;;5025308;28;19929;-55
2023/05/05 09:38:35;;;;;;;;;;;21.50;44.00;;;;;;4997050;28;19925;-55
2023/05/05 09:41:01;;;;;;;;;;;21.50;43.70;;;;;;4996858;28;19913;-56
2023/05/05 09:43:26;;;;;;;;;;;21.40;43.70;;;;;;4992292;28;19965;-55
2023/05/05 09:46:03;;;;;;;;;;;21.40;43.90;;;;;;5000748;28;20430;-55
2023/05/05 09:48:29;;;;;;;;;;;21.30;44.00;;;;;;5002448;28;19918;-55
2023/05/05 09:50:55;;;;;;;;;;;21.40;44.10;;;;;;4990764;28;19925;-55
2023/05/05 09:53:21;;;;;;;;;;;21.40;44.10;;;;;;4999293;28;19921;-56
2023/05/05 09:55:55;;;;;;;;;;;21.40;44.00;;;;;;4996544;28;19914;-55
2023/05/05 09:58:22;;;;;;;;;;;21.40;43.80;;;;;;4996031;28;19914;-55
2023/05/05 10:00:48;;;;;;;;;;;21.40;44.00;;;;;;5006308;28;19917;-55
2023/05/05 10:03:13;;;;;;;;;;;21.40;44.00;;;;;;4992057;28;19915;-55
2023/05/05 10:05:51;;;;;;;;;;;21.40;43.80;;;;;;4993476;28;19997;-55
2023/05/05 10:08:17;;;;;;;;;;;21.40;44.00;;;;;;4991619;28;19961;-55
2023/05/05 10:10:50;;;;;;;;;;;21.40;44.10;;;;;;5040131;28;20289;-55
2023/05/05 10:13:17;;;;;;;;;;;21.40;44.70;;;;;;4984763;28;19933;-56
2023/05/05 10:15:43;;;;;;;;;;;21.50;44.20;;;;;;4995874;28;19917;-55
2023/05/05 10:18:08;;;;;;;;;;;21.50;44.00;;;;;;4991710;28;20004;-55
2023/05/05 10:20:35;;;;;;;;;;;21.50;44.00;;;;;;5023907;28;20001;-56
2023/05/05 10:23:00;;;;;;;;;;;21.60;43.90;;;;;;4992230;28;19917;-55
2023/05/05 10:25:32;;;;;;;;;;;21.60;44.00;;;;;;5030657;28;20431;-55
2023/05/05 10:28:01;;;;;;;;;;;21.60;44.20;;;;;;5027794;28;19913;-55
2023/05/05 10:30:30;;;;;;;;;;;21.60;44.20;;;;;;5025022;28;19914;-55
2023/05/05 10:32:59;;;;;;;;;;;21.60;44.20;;;;;;4990560;28;20064;-56
2023/05/05 10:35:26;;;;;;;;;;;21.60;43.90;;;;;;4987479;28;20012;-55
2023/05/05 10:37:52;;;;;;;;;;;21.60;43.90;;;;;;4997035;28;19914;-55
2023/05/05 10:40:17;;;;;;;;;;;21.60;44.00;;;;;;4992563;28;19917;-55
2023/05/05 10:42:43;;;;;;;;;;;21.60;44.20;;;;;;5005260;28;20007;-55
2023/05/05 10:45:08;;;;;;;;;;;21.60;44.20;;;;;;5041587;28;19922;-54
2023/05/05 10:47:34;;;;;;;;;;;21.60;44.00;;;;;;5010713;28;19921;-54
2023/05/05 10:50:08;;;;;;;;;;;21.60;44.00;;;;;;4985126;28;19918;-54
2023/05/05 10:52:52;;;;;;;;;;;21.70;44.20;;;;;;4981044;28;19918;-54
2023/05/05 10:55:20;;;;;;;;;;;21.70;44.10;;;;;;4998116;28;19925;-54
2023/05/05 10:57:45;;;;;;;;;;;21.70;44.10;;;;;;5020057;28;19917;-54
2023/05/05 11:00:33;;;;;;;;;;;21.70;44.10;;;;;;4994030;28;19920;-54
2023/05/05 11:03:14;;;;;;;;;;;21.70;44.10;;;;;;4992359;28;20389;-54
2023/05/05 11:06:03;;;;;;;;;;;21.70;44.20;;;;;;4988721;28;19925;-53
2023/05/05 11:08:29;;;;;;;;;;;21.70;44.20;;;;;;4999460;28;19913;-54
2023/05/05 11:10:54;;;;;;;;;;;21.70;44.20;;;;;;4998161;28;20651;-54
2023/05/05 11:13:20;;;;;;;;;;;21.70;44.40;;;;;;4978018;28;20275;-55
2023/05/05 11:15:50;;;;;;;;;;;21.70;44.20;;;;;;4990585;28;19960;-55
2023/05/05 11:18:37;;;;;;;;;;;21.80;44.10;;;;;;4982855;28;19918;-55
2023/05/05 11:21:07;;;;;;;;;;;21.70;44.00;;;;;;4990609;28;19945;-55
2023/05/05 11:23:33;;;;;;;;;;;21.70;44.10;;;;;;4980743;28;19914;-55
2023/05/05 11:25:58;;;;;;;;;;;21.70;43.90;;;;;;4980944;28;19926;-54
2023/05/05 11:28:27;;;;;;;;;;;21.70;44.20;;;;;;4987485;28;19961;-54
2023/05/05 11:30:55;;;;;;;;;;;21.70;44.00;;;;;;4998613;28;19917;-54
2023/05/05 11:33:36;;;;;;;;;;;21.70;44.10;;;;;;4990168;28;19914;-54
2023/05/05 11:36:03;;;;;;;;;;;21.60;44.10;;;;;;4987858;28;19914;-54
2023/05/05 11:38:37;;;;;;;;;;;21.60;44.10;;;;;;4995333;28;19980;-54
2023/05/05 11:41:09;;;;;;;;;;;21.60;44.10;;;;;;4983474;28;19965;-54
2023/05/05 11:43:34;;;;;;;;;;;21.70;44.30;;;;;;4987845;28;19968;-54
2023/05/05 11:46:11;;;;;;;;;;;21.70;44.40;;;;;;4995247;28;20382;-54
2023/05/05 11:48:46;;;;;;;;;;;21.70;44.60;;;;;;5027095;28;20316;-54
2023/05/05 11:51:14;;;;;;;;;;;21.60;44.30;;;;;;4995100;28;20321;-53
2023/05/05 11:53:41;;;;;;;;;;;21.70;45.10;;;;;;4986806;28;19977;-54
2023/05/05 11:56:07;;;;;;;;;;;21.70;44.50;;;;;;4987570;28;19914;-54
2023/05/05 11:58:33;;;;;;;;;;;21.70;44.40;;;;;;5003605;28;19910;-53
2023/05/05 12:00:58;;;;;;;;;;;21.70;44.40;;;;;;4989467;28;20462;-54
2023/05/05 12:03:24;;;;;;;;;;;21.70;44.30;;;;;;4991656;28;20362;-53
2023/05/05 12:05:52;;;;;;;;;;;21.70;44.20;;;;;;4987210;28;19927;-54
2023/05/05 12:08:18;;;;;;;;;;;21.70;44.10;;;;;;4985395;28;19929;-54
2023/05/05 12:10:43;;;;;;;;;;;21.70;44.00;;;;;;4976461;28;20336;-53
2023/05/05 12:13:18;;;;;;;;;;;21.70;43.80;;;;;;4994512;28;20009;-53
2023/05/05 12:15:44;;;;;;;;;;;21.70;43.80;;;;;;4998549;28;19922;-54
2023/05/05 12:18:19;;;;;;;;;;;21.70;44.10;;;;;;5013755;28;20553;-53
2023/05/05 12:20:45;;;;;;;;;;;21.70;43.80;;;;;;5001107;28;19972;-54
2023/05/05 12:23:11;;;;;;;;;;;21.70;43.70;;;;;;4991346;28;19920;-54
2023/05/05 12:25:37;;;;;;;;;;;21.70;43.70;;;;;;4991234;28;20016;-55
2023/05/05 12:28:03;;;;;;;;;;;21.70;43.60;;;;;;5000771;28;19913;-53
2023/05/05 12:30:29;;;;;;;;;;;21.70;43.60;;;;;;4977551;28;19922;-54
2023/05/05 12:33:02;;;;;;;;;;;21.70;43.70;;;;;;5000276;28;20328;-53
2023/05/05 12:35:28;;;;;;;;;;;21.70;43.60;;;;;;4989705;28;20013;-54
2023/05/05 12:37:53;;;;;;;;;;;21.70;43.50;;;;;;5001480;28;19914;-54
2023/05/05 12:40:38;;;;;;;;;;;21.70;43.50;;;;;;5021434;28;20283;-54
2023/05/05 12:43:03;;;;;;;;;;;21.70;43.40;;;;;;4977360;28;20243;-53
2023/05/05 12:45:29;;;;;;;;;;;21.70;43.40;;;;;;4998645;28;19933;-53
2023/05/05 12:47:54;;;;;;;;;;;21.60;43.40;;;;;;4997352;28;19918;-53
2023/05/05 12:50:32;;;;;;;;;;;21.60;43.50;;;;;;4981219;28;20330;-53
2023/05/05 12:52:57;;;;;;;;;;;21.70;43.50;;;;;;4985970;28;19918;-53
2023/05/05 12:55:36;;;;;;;;;;;21.70;43.30;;;;;;4985209;28;20282;-53
2023/05/05 12:58:03;;;;;;;;;;;21.70;43.40;;;;;;4985225;28;20442;-53
2023/05/05 13:00:28;;;;;;;;;;;21.60;43.40;;;;;;4985758;28;19969;-53
2023/05/05 13:02:55;;;;;;;;;;;21.60;43.50;;;;;;4991255;28;19985;-53
2023/05/05 13:05:30;;;;;;;;;;;21.70;43.40;;;;;;4995881;28;20016;-53
2023/05/05 13:07:56;;;;;;;;;;;21.70;43.20;;;;;;4991957;28;19920;-53
2023/05/05 13:10:21;;;;;;;;;;;21.60;43.40;;;;;;4976609;28;19914;-54
2023/05/05 13:12:47;;;;;;;;;;;21.60;43.20;;;;;;4985283;28;19932;-53
2023/05/05 13:15:12;;;;;;;;;;;21.60;43.30;;;;;;4998269;28;20306;-53
2023/05/05 13:17:38;;;;;;;;;;;21.60;43.60;;;;;;4999406;28;20001;-53
2023/05/05 13:20:05;;;;;;;;;;;21.60;43.50;;;;;;4991916;28;19949;-53
2023/05/05 13:22:30;;;;;;;;;;;21.60;43.40;;;;;;4988606;28;19920;-53
2023/05/05 13:24:56;;;;;;;;;;;21.60;43.50;;;;;;5004857;28;19917;-56
2023/05/05 13:27:21;;;;;;;;;;;21.60;43.40;;;;;;5007339;28;19964;-54
2023/05/05 13:29:47;;;;;;;;;;;21.60;43.50;;;;;;4987250;28;19913;-53
2023/05/05 13:32:12;;;;;;;;;;;21.60;43.70;;;;;;4993855;28;19914;-54
2023/05/05 13:34:38;;;;;;;;;;;21.50;43.70;;;;;;4990081;28;20374;-54
2023/05/05 13:37:03;;;;;;;;;;;21.50;43.80;;;;;;4992142;28;20294;-54
2023/05/05 13:39:29;;;;;;;;;;;21.60;43.90;;;;;;4984481;28;20444;-55
2023/05/05 13:41:54;;;;;;;;;;;21.50;43.80;;;;;;4992858;28;20499;-53
2023/05/05 13:44:20;;;;;;;;;;;21.50;44.00;;;;;;4987757;28;19924;-53
2023/05/05 13:46:45;;;;;;;;;;;21.50;44.00;;;;;;4993683;28;19925;-53
2023/05/05 13:49:11;;;;;;;;;;;21.50;44.20;;;;;;4990797;28;19949;-53
2023/05/05 13:51:37;;;;;;;;;;;21.50;44.20;;;;;;5004559;28;19956;-55
2023/05/05 13:54:03;;;;;;;;;;;21.40;44.20;;;;;;5006613;28;20362;-53
2023/05/05 13:56:28;;;;;;;;;;;21.40;44.40;;;;;;4995570;28;20113;-53
2023/05/05 13:58:54;;;;;;;;;;;21.40;44.50;;;;;;5028575;28;19917;-53
2023/05/05 14:01:19;;;;;;;;;;;21.40;44.70;;;;;;5009251;28;19918;-53
2023/05/05 14:03:45;;;;;;;;;;;21.40;44.60;;;;;;5002759;28;20027;-53
2023/05/05 14:06:10;;;;;;;;;;;21.40;44.70;;;;;;4990924;28;20440;-54
2023/05/05 14:08:36;;;;;;;;;;;21.40;44.90;;;;;;4992981;28;20456;-52
2023/05/05 14:11:02;;;;;;;;;;;21.40;45.20;;;;;;4994015;28;20286;-54
2023/05/05 14:13:27;;;;;;;;;;;21.30;45.10;;;;;;4993402;28;19922;-53
2023/05/05 14:15:53;;;;;;;;;;;21.30;45.20;;;;;;4992894;28;19914;-53